createdAt,value
2019-02-25T00:00:39.931Z,0.00
2019-02-25T00:01:40.562Z,0.00
2019-02-25T00:02:39.840Z,0.00
2019-02-25T00:04:00.790Z,0.00
2019-02-25T00:04:39.734Z,0.00
2019-02-25T00:05:39.720Z,0.00
2019-02-25T00:06:39.677Z,0.00
2019-02-25T00:07:39.623Z,0.00
2019-02-25T00:08:39.585Z,0.00
2019-02-25T00:10:01.075Z,0.00
2019-02-25T00:10:39.501Z,0.00
2019-02-25T00:11:39.502Z,0.00
2019-02-25T00:12:40.071Z,0.00
2019-02-25T00:13:39.360Z,0.00
2019-02-25T00:14:39.286Z,0.00
2019-02-25T00:16:00.262Z,0.00
2019-02-25T00:16:40.072Z,0.00
2019-02-25T00:17:39.174Z,0.00
2019-02-25T00:18:39.141Z,0.00
2019-02-25T00:19:39.084Z,0.00
2019-02-25T00:20:39.050Z,0.00
2019-02-25T00:22:00.567Z,0.00
2019-02-25T00:22:38.955Z,0.00
2019-02-25T00:23:38.887Z,0.00
2019-02-25T00:24:38.882Z,0.00
2019-02-25T00:25:38.827Z,0.00
2019-02-25T00:26:38.787Z,0.00
2019-02-25T00:27:59.739Z,0.00
2019-02-25T00:28:38.695Z,0.00
2019-02-25T00:29:39.067Z,0.00
2019-02-25T00:30:38.606Z,0.00
2019-02-25T00:31:39.069Z,0.00
2019-02-25T00:32:38.517Z,0.00
2019-02-25T00:33:59.472Z,0.00
2019-02-25T00:34:38.480Z,0.00
2019-02-25T00:35:38.413Z,0.00
2019-02-25T00:36:38.391Z,0.00
2019-02-25T00:37:38.313Z,0.00
2019-02-25T00:38:38.253Z,0.00
2019-02-25T00:40:00.144Z,0.00
2019-02-25T00:40:38.140Z,0.00
2019-02-25T00:41:38.111Z,0.00
2019-02-25T00:42:38.094Z,0.00
2019-02-25T00:43:38.057Z,0.00
2019-02-25T00:44:38.004Z,0.00
2019-02-25T00:45:58.952Z,0.00
2019-02-25T00:46:38.576Z,0.00
2019-02-25T00:47:37.860Z,0.00
2019-02-25T00:48:37.823Z,0.00
2019-02-25T00:49:37.771Z,0.00
2019-02-25T00:50:37.718Z,0.00
2019-02-25T00:51:58.704Z,0.00
2019-02-25T00:52:37.633Z,0.00
2019-02-25T00:53:37.604Z,0.00
2019-02-25T00:54:37.571Z,0.00
2019-02-25T00:55:37.539Z,0.00
2019-02-25T00:56:37.466Z,0.00
2019-02-25T00:57:58.411Z,0.00
2019-02-25T00:58:37.398Z,0.00
2019-02-25T00:59:37.319Z,0.00
2019-02-25T01:00:37.311Z,0.00
2019-02-25T01:01:37.381Z,0.00
2019-02-25T01:02:38.081Z,0.00
2019-02-25T01:03:58.146Z,0.00
2019-02-25T01:04:37.151Z,0.00
2019-02-25T01:05:37.087Z,0.00
2019-02-25T01:06:37.067Z,0.00
2019-02-25T01:07:37.014Z,0.00
2019-02-25T01:08:36.950Z,0.00
2019-02-25T01:09:57.923Z,0.00
2019-02-25T01:10:37.571Z,0.00
2019-02-25T01:11:37.571Z,0.00
2019-02-25T01:12:36.777Z,0.00
2019-02-25T01:13:37.580Z,0.00
2019-02-25T01:14:36.729Z,0.00
2019-02-25T01:15:57.623Z,0.00
2019-02-25T01:16:36.585Z,0.00
2019-02-25T01:17:37.075Z,0.00
2019-02-25T01:18:36.499Z,0.00
2019-02-25T01:19:36.444Z,0.00
2019-02-25T01:20:36.415Z,0.00
2019-02-25T01:21:57.395Z,0.00
2019-02-25T01:22:36.344Z,0.00
2019-02-25T01:23:42.848Z,0.00
2019-02-25T01:24:36.206Z,0.00
2019-02-25T01:25:36.204Z,0.00
2019-02-25T01:26:36.580Z,0.00
2019-02-25T01:27:57.126Z,0.00
2019-02-25T01:28:36.052Z,0.00
2019-02-25T01:29:36.002Z,0.00
2019-02-25T01:30:35.953Z,0.00
2019-02-25T01:31:35.877Z,0.00
2019-02-25T01:32:36.579Z,0.00
2019-02-25T01:33:56.831Z,0.00
2019-02-25T01:34:35.800Z,0.00
2019-02-25T01:35:35.763Z,0.00
2019-02-25T01:36:35.712Z,0.00
2019-02-25T01:37:35.668Z,0.00
2019-02-25T01:38:35.606Z,0.00
2019-02-25T01:39:56.528Z,0.00
2019-02-25T01:40:35.488Z,0.00
2019-02-25T01:41:35.480Z,0.00
2019-02-25T01:42:35.434Z,0.00
2019-02-25T01:43:35.391Z,0.00
2019-02-25T01:44:35.346Z,0.00
2019-02-25T01:45:56.304Z,0.00
2019-02-25T01:46:36.088Z,0.00
2019-02-25T01:47:35.233Z,0.00
2019-02-25T01:48:35.183Z,0.00
2019-02-25T01:49:35.121Z,0.00
2019-02-25T01:50:35.119Z,0.00
2019-02-25T01:51:56.589Z,0.00
2019-02-25T01:52:35.012Z,0.00
2019-02-25T01:53:34.950Z,0.00
2019-02-25T01:54:34.898Z,0.00
2019-02-25T01:55:34.862Z,0.00
2019-02-25T01:56:34.824Z,0.00
2019-02-25T01:57:55.811Z,0.00
2019-02-25T01:58:34.679Z,0.00
2019-02-25T01:59:34.644Z,0.00
2019-02-25T02:00:34.651Z,0.00
2019-02-25T02:01:34.572Z,0.00
2019-02-25T02:02:34.530Z,0.00
2019-02-25T02:03:55.476Z,0.00
2019-02-25T02:04:34.470Z,0.00
2019-02-25T02:05:34.432Z,0.00
2019-02-25T02:06:35.082Z,0.00
2019-02-25T02:07:34.346Z,0.00
2019-02-25T02:08:35.093Z,0.00
2019-02-25T02:09:55.252Z,0.00
2019-02-25T02:10:34.212Z,0.00
2019-02-25T02:11:34.150Z,0.00
2019-02-25T02:12:34.116Z,0.00
2019-02-25T02:15:06.103Z,0.00
2019-02-25T02:16:05.645Z,0.00
2019-02-25T02:17:59.038Z,0.00
2019-02-25T02:18:58.534Z,0.00
2019-02-25T02:20:51.742Z,0.00
2019-02-25T02:21:52.339Z,0.00
2019-02-25T02:24:05.958Z,0.00
2019-02-25T02:24:44.531Z,0.00
2019-02-25T02:26:37.648Z,0.00
2019-02-25T02:27:37.422Z,0.00
2019-02-25T02:29:30.821Z,0.00
2019-02-25T02:30:30.452Z,0.00
2019-02-25T02:32:23.878Z,0.00
2019-02-25T02:33:23.375Z,0.00
2019-02-25T02:35:18.400Z,0.00
2019-02-25T02:36:18.255Z,0.00
2019-02-25T02:38:11.319Z,0.00
2019-02-25T02:39:11.229Z,0.00
2019-02-25T02:41:03.960Z,0.00
2019-02-25T02:42:03.860Z,0.00
2019-02-25T02:43:57.168Z,0.00
2019-02-25T02:44:57.527Z,0.00
2019-02-25T02:46:50.168Z,0.00
2019-02-25T02:47:50.465Z,0.00
2019-02-25T02:49:44.660Z,0.00
2019-02-25T02:50:44.169Z,0.00
2019-02-25T02:52:37.617Z,0.00
2019-02-25T02:53:37.537Z,0.00
2019-02-25T02:55:30.586Z,0.00
2019-02-25T02:56:30.451Z,0.00
2019-02-25T02:58:23.511Z,0.00
2019-02-25T02:59:22.985Z,0.00
2019-02-25T03:01:16.495Z,0.00
2019-02-25T03:02:16.771Z,0.00
2019-02-25T03:04:10.011Z,0.00
2019-02-25T03:05:09.731Z,0.00
2019-02-25T03:07:03.892Z,0.00
2019-02-25T03:08:03.786Z,0.00
2019-02-25T03:09:58.693Z,0.00
2019-02-25T03:10:57.195Z,0.00
2019-02-25T03:12:49.797Z,0.00
2019-02-25T03:13:49.353Z,0.00
2019-02-25T03:15:42.783Z,0.00
2019-02-25T03:16:43.081Z,0.00
2019-02-25T03:18:35.696Z,0.00
2019-02-25T03:19:35.353Z,0.00
2019-02-25T03:21:28.995Z,0.00
2019-02-25T03:22:28.279Z,0.00
2019-02-25T03:24:21.789Z,0.00
2019-02-25T03:25:21.200Z,0.00
2019-02-25T03:27:16.116Z,0.00
2019-02-25T03:28:16.049Z,0.00
2019-02-25T03:30:09.124Z,0.00
2019-02-25T03:31:09.388Z,0.00
2019-02-25T03:33:01.993Z,0.00
2019-02-25T03:34:01.516Z,0.00
2019-02-25T03:35:55.004Z,0.00
2019-02-25T03:36:54.575Z,0.00
2019-02-25T03:38:47.931Z,0.00
2019-02-25T03:39:47.490Z,0.00
2019-02-25T03:41:40.906Z,0.00
2019-02-25T03:42:40.796Z,0.00
2019-02-25T03:44:35.396Z,0.00
2019-02-25T03:45:35.011Z,0.00
2019-02-25T03:47:28.346Z,0.00
2019-02-25T03:48:28.188Z,0.00
2019-02-25T03:50:21.390Z,0.00
2019-02-25T03:51:20.805Z,0.00
2019-02-25T03:53:14.237Z,0.00
2019-02-25T03:54:14.133Z,0.00
2019-02-25T03:56:07.233Z,0.00
2019-02-25T03:57:06.717Z,0.00
2019-02-25T03:59:00.181Z,0.00
2019-02-25T04:00:00.474Z,0.00
2019-02-25T04:01:55.151Z,0.00
2019-02-25T04:02:54.252Z,0.00
2019-02-25T04:04:47.616Z,0.00
2019-02-25T04:05:47.170Z,0.00
2019-02-25T04:07:40.553Z,0.00
2019-02-25T04:08:40.877Z,0.00
2019-02-25T04:10:33.500Z,0.00
2019-02-25T04:11:33.831Z,0.00
2019-02-25T04:13:26.519Z,0.00
2019-02-25T04:14:26.040Z,0.00
2019-02-25T04:16:19.476Z,0.00
2019-02-25T04:17:19.359Z,0.00
2019-02-25T04:19:12.401Z,0.00
2019-02-25T04:20:11.906Z,0.00
2019-02-25T04:22:05.849Z,0.00
2019-02-25T04:23:04.883Z,0.00
2019-02-25T04:24:59.853Z,0.00
2019-02-25T04:25:59.769Z,0.00
2019-02-25T04:27:00.103Z,0.00
2019-02-25T04:27:59.363Z,0.00
2019-02-25T04:28:59.698Z,0.00
2019-02-25T04:29:59.148Z,0.00
2019-02-25T04:30:59.084Z,0.00
2019-02-25T04:31:59.071Z,0.00
2019-02-25T04:32:58.990Z,0.00
2019-02-25T04:33:58.974Z,0.00
2019-02-25T04:34:58.920Z,0.00
2019-02-25T04:35:58.839Z,0.00
2019-02-25T04:36:58.804Z,0.00
2019-02-25T04:37:58.756Z,0.00
2019-02-25T04:38:58.772Z,0.00
2019-02-25T04:39:58.719Z,0.00
2019-02-25T04:40:58.718Z,0.00
2019-02-25T04:41:58.581Z,0.00
2019-02-25T04:42:58.568Z,0.00
2019-02-25T04:43:58.529Z,0.00
2019-02-25T04:44:58.460Z,0.00
2019-02-25T04:45:58.399Z,0.00
2019-02-25T04:46:58.356Z,0.00
2019-02-25T04:47:58.324Z,0.00
2019-02-25T04:48:58.280Z,0.00
2019-02-25T04:49:58.266Z,0.00
2019-02-25T04:50:58.202Z,0.00
2019-02-25T04:51:58.162Z,0.00
2019-02-25T04:52:58.107Z,0.00
2019-02-25T04:53:58.060Z,0.00
2019-02-25T04:54:58.043Z,0.00
2019-02-25T04:55:57.981Z,0.00
2019-02-25T04:56:57.935Z,0.00
2019-02-25T04:57:57.882Z,0.00
2019-02-25T04:58:57.826Z,0.00
2019-02-25T04:59:57.772Z,0.00
2019-02-25T05:00:57.764Z,0.00
2019-02-25T05:01:58.602Z,0.00
2019-02-25T05:02:57.655Z,0.00
2019-02-25T05:03:57.641Z,0.00
2019-02-25T05:04:57.614Z,0.00
2019-02-25T05:05:57.557Z,0.00
2019-02-25T05:06:57.527Z,0.00
2019-02-25T05:07:57.444Z,0.00
2019-02-25T05:08:57.382Z,0.00
2019-02-25T05:09:57.336Z,0.00
2019-02-25T05:10:57.324Z,0.00
2019-02-25T05:11:57.264Z,0.00
2019-02-25T05:12:57.202Z,0.00
2019-02-25T05:13:57.293Z,0.00
2019-02-25T05:14:57.121Z,0.00
2019-02-25T05:15:57.084Z,0.00
2019-02-25T05:16:57.034Z,0.00
2019-02-25T05:17:57.015Z,0.00
2019-02-25T05:18:56.936Z,0.00
2019-02-25T05:19:56.894Z,0.00
2019-02-25T05:20:56.844Z,0.00
2019-02-25T05:21:56.801Z,0.00
2019-02-25T05:22:56.765Z,0.00
2019-02-25T05:23:56.722Z,0.00
2019-02-25T05:24:56.699Z,0.00
2019-02-25T05:25:56.674Z,0.00
2019-02-25T05:26:56.593Z,0.00
2019-02-25T05:27:56.563Z,0.00
2019-02-25T05:28:56.487Z,0.00
2019-02-25T05:29:56.453Z,0.00
2019-02-25T05:30:56.403Z,0.00
2019-02-25T05:31:56.365Z,0.00
2019-02-25T05:32:56.306Z,0.00
2019-02-25T05:33:56.275Z,0.00
2019-02-25T05:34:56.259Z,0.00
2019-02-25T05:35:56.173Z,0.00
2019-02-25T05:36:56.151Z,0.00
2019-02-25T05:37:56.101Z,0.00
2019-02-25T05:38:56.038Z,0.00
2019-02-25T05:39:56.033Z,0.00
2019-02-25T05:40:55.971Z,0.00
2019-02-25T05:41:55.966Z,0.00
2019-02-25T05:42:55.904Z,0.00
2019-02-25T05:43:55.816Z,0.00
2019-02-25T05:44:55.774Z,0.00
2019-02-25T05:45:55.723Z,0.00
2019-02-25T05:46:55.703Z,0.00
2019-02-25T05:47:55.634Z,0.00
2019-02-25T05:48:55.617Z,0.00
2019-02-25T05:49:55.545Z,0.00
2019-02-25T05:50:55.506Z,0.00
2019-02-25T05:51:55.462Z,0.00
2019-02-25T05:52:55.420Z,5.63
2019-02-25T05:53:55.395Z,5.63
2019-02-25T05:54:55.335Z,5.63
2019-02-25T05:55:55.292Z,5.63
2019-02-25T05:56:55.242Z,5.63
2019-02-25T05:57:55.215Z,5.63
2019-02-25T05:58:55.191Z,11.25
2019-02-25T05:59:55.101Z,11.25
2019-02-25T06:00:55.080Z,11.25
2019-02-25T06:01:55.047Z,11.25
2019-02-25T06:02:54.986Z,16.88
2019-02-25T06:03:54.919Z,16.88
2019-02-25T06:04:54.893Z,16.88
2019-02-25T06:05:54.843Z,22.50
2019-02-25T06:06:54.798Z,22.50
2019-02-25T06:07:54.748Z,22.50
2019-02-25T06:08:54.756Z,28.13
2019-02-25T06:09:54.673Z,28.13
2019-02-25T06:10:54.626Z,33.75
2019-02-25T06:11:54.579Z,33.75
2019-02-25T06:12:54.539Z,39.38
2019-02-25T06:13:54.521Z,39.38
2019-02-25T06:14:54.445Z,45.00
2019-02-25T06:15:54.412Z,50.63
2019-02-25T06:16:54.349Z,56.25
2019-02-25T06:17:54.352Z,56.25
2019-02-25T06:18:54.272Z,61.88
2019-02-25T06:19:54.244Z,67.50
2019-02-25T06:20:54.216Z,73.13
2019-02-25T06:21:54.122Z,73.13
2019-02-25T06:22:54.077Z,78.75
2019-02-25T06:23:54.066Z,84.38
2019-02-25T06:24:54.025Z,90.00
2019-02-25T06:25:53.979Z,95.63
2019-02-25T06:26:53.890Z,101.25
2019-02-25T06:27:53.845Z,106.88
2019-02-25T06:28:53.814Z,106.88
2019-02-25T06:29:53.762Z,112.50
2019-02-25T06:30:53.761Z,118.13
2019-02-25T06:31:53.711Z,123.75
2019-02-25T06:32:53.640Z,129.38
2019-02-25T06:33:53.583Z,129.38
2019-02-25T06:34:53.558Z,135.00
2019-02-25T06:35:53.520Z,140.63
2019-02-25T06:36:53.458Z,146.25
2019-02-25T06:37:53.422Z,151.88
2019-02-25T06:38:53.369Z,157.50
2019-02-25T06:39:53.326Z,163.13
2019-02-25T06:40:53.284Z,168.75
2019-02-25T06:41:53.273Z,174.38
2019-02-25T06:42:53.234Z,180.00
2019-02-25T06:43:53.149Z,185.63
2019-02-25T06:44:53.102Z,185.63
2019-02-25T06:45:53.066Z,191.25
2019-02-25T06:46:53.026Z,196.88
2019-02-25T06:47:52.992Z,202.50
2019-02-25T06:48:52.971Z,208.13
2019-02-25T06:49:52.893Z,208.13
2019-02-25T06:50:52.835Z,213.75
2019-02-25T06:51:52.792Z,219.38
2019-02-25T06:52:52.785Z,219.38
2019-02-25T06:53:52.705Z,225.00
2019-02-25T06:54:52.658Z,230.63
2019-02-25T06:55:52.628Z,236.25
2019-02-25T06:56:52.575Z,236.25
2019-02-25T06:57:52.534Z,241.88
2019-02-25T06:58:52.488Z,247.50
2019-02-25T06:59:52.448Z,253.13
2019-02-25T07:00:52.397Z,253.13
2019-02-25T07:01:52.356Z,258.75
2019-02-25T07:02:52.328Z,264.38
2019-02-25T07:03:52.261Z,264.38
2019-02-25T07:04:52.236Z,270.00
2019-02-25T07:05:52.188Z,270.00
2019-02-25T07:06:52.137Z,275.63
2019-02-25T07:07:52.084Z,275.63
2019-02-25T07:08:52.060Z,281.25
2019-02-25T07:09:52.014Z,281.25
2019-02-25T07:10:51.978Z,286.88
2019-02-25T07:11:51.928Z,292.50
2019-02-25T07:12:58.729Z,298.13
2019-02-25T07:13:51.831Z,303.75
2019-02-25T07:14:51.772Z,315.00
2019-02-25T07:15:51.761Z,326.25
2019-02-25T07:16:51.688Z,360.00
2019-02-25T07:17:51.665Z,382.50
2019-02-25T07:18:51.630Z,388.13
2019-02-25T07:19:51.568Z,399.38
2019-02-25T07:20:51.570Z,444.38
2019-02-25T07:21:51.518Z,511.88
2019-02-25T07:22:51.430Z,562.50
2019-02-25T07:23:51.401Z,568.13
2019-02-25T07:24:53.069Z,579.38
2019-02-25T07:25:51.340Z,545.63
2019-02-25T07:26:51.265Z,590.63
2019-02-25T07:27:51.240Z,669.38
2019-02-25T07:28:51.187Z,691.88
2019-02-25T07:29:51.163Z,646.88
2019-02-25T07:30:51.102Z,630.00
2019-02-25T07:31:51.081Z,641.25
2019-02-25T07:32:51.053Z,652.50
2019-02-25T07:33:50.978Z,736.88
2019-02-25T07:34:50.952Z,765.00
2019-02-25T07:35:50.906Z,736.88
2019-02-25T07:36:50.876Z,675.00
2019-02-25T07:37:51.730Z,613.13
2019-02-25T07:38:50.816Z,590.63
2019-02-25T07:39:50.789Z,624.38
2019-02-25T07:40:50.738Z,675.00
2019-02-25T07:41:51.661Z,663.75
2019-02-25T07:42:50.674Z,646.88
2019-02-25T07:43:50.617Z,748.13
2019-02-25T07:44:50.579Z,798.75
2019-02-25T07:45:50.533Z,680.63
2019-02-25T07:46:50.495Z,646.88
2019-02-25T07:47:50.468Z,663.75
2019-02-25T07:48:50.419Z,641.25
2019-02-25T07:49:50.403Z,675.00
2019-02-25T07:50:50.386Z,630.00
2019-02-25T07:51:50.322Z,686.25
2019-02-25T07:52:50.292Z,691.88
2019-02-25T07:53:50.291Z,697.50
2019-02-25T07:54:50.211Z,658.13
2019-02-25T07:55:50.203Z,590.63
2019-02-25T07:56:50.150Z,551.25
2019-02-25T07:57:50.148Z,523.13
2019-02-25T07:58:50.087Z,528.75
2019-02-25T07:59:50.051Z,556.88
2019-02-25T08:00:50.022Z,596.25
2019-02-25T08:01:49.979Z,646.88
2019-02-25T08:02:49.932Z,646.88
2019-02-25T08:03:49.914Z,601.88
2019-02-25T08:04:49.892Z,753.75
2019-02-25T08:05:49.825Z,894.38
2019-02-25T08:06:49.823Z,1091.25
2019-02-25T08:07:49.776Z,1170.00
2019-02-25T08:08:49.716Z,1130.63
2019-02-25T08:09:50.514Z,1170.00
2019-02-25T08:10:49.681Z,1164.38
2019-02-25T08:11:49.598Z,1108.13
2019-02-25T08:12:49.584Z,1068.75
2019-02-25T08:13:49.537Z,855.00
2019-02-25T08:14:49.510Z,855.00
2019-02-25T08:15:49.498Z,798.75
2019-02-25T08:16:49.438Z,843.75
2019-02-25T08:17:49.399Z,1057.50
2019-02-25T08:18:49.369Z,1057.50
2019-02-25T08:19:49.373Z,883.13
2019-02-25T08:20:49.346Z,866.25
2019-02-25T08:21:49.278Z,866.25
2019-02-25T08:22:49.268Z,905.63
2019-02-25T08:23:49.195Z,933.75
2019-02-25T08:24:49.173Z,995.63
2019-02-25T08:25:49.134Z,1040.63
2019-02-25T08:26:49.113Z,900.00
2019-02-25T08:27:49.083Z,1012.50
2019-02-25T08:28:49.029Z,1108.13
2019-02-25T08:29:49.011Z,973.13
2019-02-25T08:30:48.972Z,1046.25
2019-02-25T08:31:48.941Z,1378.13
2019-02-25T08:32:48.915Z,1299.38
2019-02-25T08:33:48.865Z,1158.75
2019-02-25T08:34:48.870Z,1366.88
2019-02-25T08:35:48.807Z,1411.88
2019-02-25T08:36:48.779Z,1260.00
2019-02-25T08:37:48.765Z,1006.88
2019-02-25T08:38:48.740Z,1130.63
2019-02-25T08:39:48.675Z,1203.75
2019-02-25T08:40:48.660Z,1080.00
2019-02-25T08:41:48.616Z,1338.75
2019-02-25T08:42:48.581Z,1558.13
2019-02-25T08:43:48.568Z,1777.50
2019-02-25T08:44:48.513Z,1535.63
2019-02-25T08:45:48.471Z,1648.13
2019-02-25T08:46:48.452Z,1541.25
2019-02-25T08:47:48.461Z,1468.13
2019-02-25T08:48:48.400Z,1485.00
2019-02-25T08:49:48.352Z,1676.25
2019-02-25T08:50:48.334Z,1591.88
2019-02-25T08:51:48.313Z,1271.25
2019-02-25T08:52:48.281Z,1299.38
2019-02-25T08:53:48.231Z,1378.13
2019-02-25T08:54:48.209Z,1321.88
2019-02-25T08:55:48.179Z,1423.13
2019-02-25T08:56:48.176Z,1423.13
2019-02-25T08:57:48.131Z,1513.13
2019-02-25T08:58:48.091Z,1653.75
2019-02-25T08:59:48.047Z,1636.88
2019-02-25T09:00:48.024Z,1676.25
2019-02-25T09:01:47.994Z,1766.25
2019-02-25T09:02:47.969Z,1389.38
2019-02-25T09:03:47.935Z,1344.38
2019-02-25T09:04:49.266Z,1513.13
2019-02-25T09:05:47.869Z,1597.50
2019-02-25T09:06:47.837Z,1710.00
2019-02-25T09:07:47.808Z,1800.00
2019-02-25T09:08:47.783Z,2081.25
2019-02-25T09:09:47.769Z,2036.25
2019-02-25T09:10:47.729Z,1878.75
2019-02-25T09:11:47.703Z,1766.25
2019-02-25T09:12:48.887Z,1912.50
2019-02-25T09:13:47.644Z,2233.13
2019-02-25T09:14:47.610Z,2137.50
2019-02-25T09:15:47.577Z,1890.00
2019-02-25T09:16:47.587Z,1597.50
2019-02-25T09:17:47.534Z,1535.63
2019-02-25T09:18:47.516Z,1670.63
2019-02-25T09:19:47.523Z,1884.38
2019-02-25T09:20:47.434Z,2036.25
2019-02-25T09:21:47.449Z,2120.63
2019-02-25T09:22:47.400Z,1968.75
2019-02-25T09:23:47.353Z,1957.50
2019-02-25T09:24:47.314Z,2008.13
2019-02-25T09:25:47.299Z,2030.63
2019-02-25T09:26:47.274Z,2041.88
2019-02-25T09:27:47.277Z,1923.75
2019-02-25T09:28:47.222Z,1996.88
2019-02-25T09:29:47.212Z,2092.50
2019-02-25T09:30:47.185Z,2109.38
2019-02-25T09:31:47.144Z,2182.50
2019-02-25T09:32:47.128Z,2289.38
2019-02-25T09:33:47.101Z,2053.13
2019-02-25T09:34:47.229Z,2058.75
2019-02-25T09:35:47.058Z,1884.38
2019-02-25T09:36:47.044Z,1845.00
2019-02-25T09:37:46.998Z,2210.63
2019-02-25T09:38:46.992Z,2216.25
2019-02-25T09:39:46.974Z,2238.75
2019-02-25T09:40:46.939Z,2171.25
2019-02-25T09:41:46.895Z,1985.63
2019-02-25T09:42:46.864Z,2109.38
2019-02-25T09:43:46.848Z,1946.25
2019-02-25T09:44:46.811Z,2250.00
2019-02-25T09:45:46.818Z,2306.25
2019-02-25T09:46:46.801Z,2120.63
2019-02-25T09:47:46.771Z,2205.00
2019-02-25T09:48:46.724Z,2373.75
2019-02-25T09:49:46.684Z,2401.88
2019-02-25T09:50:46.692Z,2289.38
2019-02-25T09:51:46.660Z,2154.38
2019-02-25T09:52:46.607Z,2362.50
2019-02-25T09:53:46.577Z,2323.13
2019-02-25T09:54:46.559Z,2216.25
2019-02-25T09:55:46.549Z,2188.13
2019-02-25T09:56:46.512Z,2193.75
2019-02-25T09:57:46.510Z,2278.13
2019-02-25T09:58:46.470Z,2497.50
2019-02-25T09:59:46.446Z,2520.00
2019-02-25T10:00:46.419Z,2441.25
2019-02-25T10:01:46.384Z,2311.88
2019-02-25T10:02:46.384Z,2328.75
2019-02-25T10:03:46.343Z,2328.75
2019-02-25T10:04:46.340Z,2480.63
2019-02-25T10:05:46.444Z,2565.00
2019-02-25T10:06:46.267Z,2458.13
2019-02-25T10:07:46.258Z,2604.38
2019-02-25T10:08:46.595Z,2666.25
2019-02-25T10:09:46.210Z,2565.00
2019-02-25T10:10:46.185Z,2593.13
2019-02-25T10:11:46.173Z,2610.00
2019-02-25T10:12:46.125Z,2660.63
2019-02-25T10:13:46.110Z,2565.00
2019-02-25T10:14:46.083Z,2475.00
2019-02-25T10:15:46.070Z,2407.50
2019-02-25T10:16:46.064Z,2098.13
2019-02-25T10:17:46.028Z,2193.75
2019-02-25T10:18:46.040Z,2750.63
2019-02-25T10:19:45.989Z,2503.13
2019-02-25T10:20:45.940Z,2340.00
2019-02-25T10:21:45.938Z,2750.63
2019-02-25T10:22:45.919Z,2632.50
2019-02-25T10:23:45.897Z,2649.38
2019-02-25T10:24:45.876Z,3003.75
2019-02-25T10:25:45.865Z,2863.13
2019-02-25T10:26:45.850Z,2660.63
2019-02-25T10:27:45.813Z,2418.75
2019-02-25T10:28:45.806Z,2469.38
2019-02-25T10:29:45.745Z,2598.75
2019-02-25T10:30:52.646Z,2458.13
2019-02-25T10:31:45.703Z,2705.63
2019-02-25T10:32:45.698Z,2638.13
2019-02-25T10:33:45.660Z,2407.50
2019-02-25T10:34:45.645Z,2272.50
2019-02-25T10:35:45.633Z,2548.13
2019-02-25T10:36:46.094Z,2593.13
2019-02-25T10:37:45.582Z,2441.25
2019-02-25T10:38:45.556Z,2559.38
2019-02-25T10:39:47.441Z,2587.50
2019-02-25T10:40:47.361Z,2435.63
2019-02-25T10:41:45.502Z,2559.38
2019-02-25T10:42:45.460Z,2435.63
2019-02-25T10:43:45.449Z,2649.38
2019-02-25T10:44:45.416Z,2778.75
2019-02-25T10:45:45.496Z,2778.75
2019-02-25T10:46:46.868Z,2666.25
2019-02-25T10:47:46.689Z,2739.38
2019-02-25T10:48:45.337Z,2610.00
2019-02-25T10:49:45.313Z,2711.25
2019-02-25T10:50:45.272Z,2840.63
2019-02-25T10:51:45.655Z,2722.50
2019-02-25T10:52:47.108Z,2531.25
2019-02-25T10:53:47.186Z,2649.38
2019-02-25T10:54:45.189Z,2632.50
2019-02-25T10:55:47.261Z,2975.63
2019-02-25T10:56:45.150Z,3318.75
2019-02-25T10:57:45.140Z,3088.13
2019-02-25T10:58:45.111Z,2981.25
2019-02-25T10:59:45.075Z,2621.25
2019-02-25T11:00:46.043Z,2700.00
2019-02-25T11:01:45.775Z,3217.50
2019-02-25T11:02:46.884Z,3088.13
2019-02-25T11:03:45.640Z,2829.38
2019-02-25T11:04:44.988Z,2745.00
2019-02-25T11:05:44.955Z,2587.50
2019-02-25T11:06:44.966Z,2666.25
2019-02-25T11:07:44.911Z,2655.00
2019-02-25T11:08:45.730Z,2868.75
2019-02-25T11:09:46.025Z,2846.25
2019-02-25T11:10:46.948Z,2778.75
2019-02-25T11:11:44.810Z,2778.75
2019-02-25T11:12:44.797Z,2688.75
2019-02-25T11:13:44.855Z,2801.25
2019-02-25T11:14:44.752Z,2598.75
2019-02-25T11:15:47.812Z,2508.75
2019-02-25T11:16:46.031Z,2919.38
2019-02-25T11:17:45.480Z,3093.75
2019-02-25T11:18:44.678Z,3223.13
2019-02-25T11:19:44.649Z,2683.13
2019-02-25T11:20:44.672Z,2497.50
2019-02-25T11:21:44.678Z,2936.25
2019-02-25T11:22:46.184Z,3268.13
2019-02-25T11:23:45.165Z,2958.75
2019-02-25T11:24:44.523Z,2767.50
2019-02-25T11:25:44.515Z,3268.13
2019-02-25T11:26:44.528Z,2660.63
2019-02-25T11:27:44.682Z,2829.38
2019-02-25T11:28:44.454Z,2874.38
2019-02-25T11:29:46.097Z,2739.38
2019-02-25T11:30:44.994Z,2795.63
2019-02-25T11:31:45.224Z,2311.88
2019-02-25T11:32:44.390Z,2413.13
2019-02-25T11:33:44.353Z,2458.13
2019-02-25T11:34:44.335Z,2587.50
2019-02-25T11:35:45.815Z,2626.88
2019-02-25T11:36:44.292Z,2795.63
2019-02-25T11:37:44.306Z,2688.75
2019-02-25T11:38:44.216Z,2891.25
2019-02-25T11:39:44.235Z,3060.00
2019-02-25T11:40:44.175Z,2846.25
2019-02-25T11:41:44.192Z,2514.38
2019-02-25T11:42:44.120Z,2446.88
2019-02-25T11:43:45.865Z,2671.88
2019-02-25T11:44:44.121Z,2536.88
2019-02-25T11:45:44.074Z,2441.25
2019-02-25T11:46:44.155Z,2812.50
2019-02-25T11:47:44.044Z,2784.38
2019-02-25T11:48:43.988Z,2626.88
2019-02-25T11:49:43.969Z,2750.63
2019-02-25T11:50:44.824Z,2823.75
2019-02-25T11:51:43.927Z,2784.38
2019-02-25T11:52:43.996Z,2632.50
2019-02-25T11:53:43.895Z,2801.25
2019-02-25T11:54:43.954Z,2784.38
2019-02-25T11:55:43.989Z,2745.00
2019-02-25T11:56:43.876Z,2598.75
2019-02-25T11:57:44.039Z,2638.13
2019-02-25T11:58:44.005Z,2576.25
2019-02-25T11:59:44.591Z,2300.63
2019-02-25T12:00:44.061Z,2424.38
2019-02-25T12:01:43.755Z,2396.25
2019-02-25T12:02:43.800Z,2480.63
2019-02-25T12:03:43.958Z,2688.75
2019-02-25T12:04:44.060Z,2351.25
2019-02-25T12:05:43.765Z,2458.13
2019-02-25T12:06:43.664Z,2525.63
2019-02-25T12:07:43.607Z,2463.75
2019-02-25T12:08:43.545Z,2671.88
2019-02-25T12:09:43.697Z,2750.63
2019-02-25T12:10:43.528Z,2565.00
2019-02-25T12:11:43.602Z,2593.13
2019-02-25T12:12:43.812Z,2536.88
2019-02-25T12:13:43.421Z,2435.63
2019-02-25T12:14:43.527Z,2570.63
2019-02-25T12:15:43.380Z,2598.75
2019-02-25T12:16:44.268Z,2373.75
2019-02-25T12:17:43.378Z,2694.38
2019-02-25T12:18:43.338Z,2868.75
2019-02-25T12:19:43.299Z,2632.50
2019-02-25T12:20:43.262Z,2576.25
2019-02-25T12:21:43.246Z,2632.50
2019-02-25T12:22:43.243Z,2497.50
2019-02-25T12:23:43.230Z,2323.13
2019-02-25T12:24:43.187Z,2188.13
2019-02-25T12:25:43.474Z,2767.50
2019-02-25T12:26:44.935Z,2587.50
2019-02-25T12:27:43.181Z,2446.88
2019-02-25T12:28:44.362Z,2491.88
2019-02-25T12:29:44.177Z,2469.38
2019-02-25T12:30:43.233Z,2525.63
2019-02-25T12:31:43.181Z,2446.88
2019-02-25T12:32:43.062Z,2396.25
2019-02-25T12:33:42.960Z,2193.75
2019-02-25T12:34:43.142Z,2446.88
2019-02-25T12:35:43.822Z,2863.13
2019-02-25T12:36:42.926Z,2700.00
2019-02-25T12:37:43.029Z,2559.38
2019-02-25T12:38:42.872Z,2913.75
2019-02-25T12:39:42.862Z,2958.75
2019-02-25T12:40:42.847Z,2660.63
2019-02-25T12:41:42.807Z,2559.38
2019-02-25T12:42:42.760Z,2216.25
2019-02-25T12:43:43.077Z,2188.13
2019-02-25T12:44:42.747Z,2148.75
2019-02-25T12:45:42.707Z,2604.38
2019-02-25T12:46:43.378Z,2593.13
2019-02-25T12:47:42.842Z,2610.00
2019-02-25T12:48:42.677Z,2081.25
2019-02-25T12:49:42.582Z,2497.50
2019-02-25T12:50:42.773Z,2491.88
2019-02-25T12:51:42.781Z,2199.38
2019-02-25T12:52:42.735Z,2210.63
2019-02-25T12:53:43.350Z,2435.63
2019-02-25T12:54:42.964Z,2362.50
2019-02-25T12:55:42.598Z,2193.75
2019-02-25T12:56:42.755Z,2137.50
2019-02-25T12:57:42.759Z,2041.88
2019-02-25T12:58:42.830Z,2013.75
2019-02-25T12:59:42.851Z,2176.88
2019-02-25T13:00:42.377Z,2081.25
2019-02-25T13:01:42.609Z,2233.13
2019-02-25T13:02:45.636Z,2244.38
2019-02-25T13:03:42.655Z,2379.38
2019-02-25T13:04:42.496Z,2548.13
2019-02-25T13:05:42.601Z,2520.00
2019-02-25T13:06:42.885Z,2098.13
2019-02-25T13:07:43.092Z,1940.63
2019-02-25T13:08:42.973Z,2261.25
2019-02-25T13:09:42.777Z,2385.00
2019-02-25T13:10:43.314Z,2126.25
2019-02-25T13:11:43.187Z,2233.13
2019-02-25T13:12:42.098Z,2587.50
2019-02-25T13:13:42.599Z,1873.13
2019-02-25T13:14:43.263Z,2446.88
2019-02-25T13:15:45.994Z,2722.50
2019-02-25T13:16:42.280Z,2548.13
2019-02-25T13:17:42.728Z,2188.13
2019-02-25T13:18:42.780Z,1788.75
2019-02-25T13:19:42.788Z,1575.00
2019-02-25T13:20:42.812Z,1726.88